TBM YSMI-YMAV
Flight info
| Callsign | TBM |
|---|---|
| Flight time | 0h 55m |
| Altitude | 20000 |
| Route | THRUM W564 KII/N0285F190 W405 TAITE |
| Aircraft | TBM8/L-SDFGRWY/S |
Departure
| Time | 2026-05-04 07:38 |
|---|---|
| Airport | Smithton Airport (YSMI) |
Arrival
| Time | 2026-05-04 08:33 |
|---|---|
| Airport | Melbourne Avalon International Airport (YMAV) |
| Time | Latitude | Longitude | Altitude | Speed | Heading |
|---|---|---|---|---|---|
| 2026-05-04 07:24 | -40.82926 | 145.08444 | 26 ft | 0 kts | 26° |
| 2026-05-04 07:28 | -40.82932 | 145.08467 | 26 ft | 10 kts | 167° |
| 2026-05-04 07:28 | -40.82953 | 145.08441 | 26 ft | 5 kts | 278° |
| 2026-05-04 07:29 | -40.82975 | 145.08281 | 27 ft | 18 kts | 164° |
| 2026-05-04 07:29 | -40.83075 | 145.08312 | 27 ft | 16 kts | 173° |
| 2026-05-04 07:29 | -40.83148 | 145.08320 | 27 ft | 15 kts | 181° |
| 2026-05-04 07:29 | -40.83283 | 145.08319 | 27 ft | 14 kts | 176° |
| 2026-05-04 07:30 | -40.83371 | 145.08327 | 27 ft | 11 kts | 179° |
| 2026-05-04 07:30 | -40.83426 | 145.08326 | 27 ft | 9 kts | 181° |
| 2026-05-04 07:30 | -40.83541 | 145.08325 | 28 ft | 23 kts | 179° |
| 2026-05-04 07:30 | -40.83541 | 145.08547 | 25 ft | 35 kts | 73° |
| 2026-05-04 07:31 | -40.83450 | 145.08879 | 26 ft | 39 kts | 70° |
| 2026-05-04 07:31 | -40.83394 | 145.09044 | 27 ft | 24 kts | 64° |
| 2026-05-04 07:33 | -40.83356 | 145.09225 | 27 ft | 0 kts | 253° |
| 2026-05-04 07:34 | -40.83361 | 145.09203 | 27 ft | 15 kts | 251° |
| 2026-05-04 07:34 | -40.83466 | 145.08829 | 26 ft | 71 kts | 250° |
| 2026-05-04 07:35 | -40.83629 | 145.08264 | 25 ft | 27 kts | 249° |
| 2026-05-04 07:35 | -40.83637 | 145.08236 | 28 ft | 0 kts | 248° |
| 2026-05-04 07:38 | -40.84791 | 145.04598 | 903 ft | 126 kts | 260° |
| 2026-05-04 07:38 | -40.84800 | 145.03498 | 1327 ft | 123 kts | 288° |
| 2026-05-04 07:38 | -40.84442 | 145.02411 | 1534 ft | 134 kts | 309° |
| 2026-05-04 07:38 | -40.83672 | 145.01690 | 1814 ft | 136 kts | 337° |
| 2026-05-04 07:39 | -40.82696 | 145.01610 | 2011 ft | 148 kts | 7° |
| 2026-05-04 07:39 | -40.81735 | 145.02107 | 2482 ft | 146 kts | 18° |
| 2026-05-04 07:39 | -40.80814 | 145.02641 | 2947 ft | 143 kts | 17° |
| 2026-05-04 07:39 | -40.79926 | 145.03139 | 3428 ft | 140 kts | 19° |
| 2026-05-04 07:40 | -40.79013 | 145.03674 | 3771 ft | 147 kts | 20° |
| 2026-05-04 07:40 | -40.78069 | 145.04210 | 4171 ft | 145 kts | 9° |
| 2026-05-04 07:40 | -40.77088 | 145.04117 | 4589 ft | 143 kts | 344° |
| 2026-05-04 07:40 | -40.76157 | 145.03618 | 4987 ft | 145 kts | 340° |
| 2026-05-04 07:41 | -40.75220 | 145.03147 | 5429 ft | 144 kts | 337° |
| 2026-05-04 07:41 | -40.74310 | 145.02584 | 5815 ft | 147 kts | 333° |
| 2026-05-04 07:41 | -40.73377 | 145.01985 | 6159 ft | 151 kts | 335° |
| 2026-05-04 07:41 | -40.72417 | 145.01388 | 6507 ft | 154 kts | 336° |
| 2026-05-04 07:42 | -40.71429 | 145.00819 | 6845 ft | 157 kts | 337° |
| 2026-05-04 07:42 | -40.70428 | 145.00250 | 7176 ft | 160 kts | 337° |
| 2026-05-04 07:42 | -40.69388 | 144.99697 | 7503 ft | 162 kts | 339° |
| 2026-05-04 07:42 | -40.68337 | 144.99122 | 7835 ft | 164 kts | 336° |
| 2026-05-04 07:43 | -40.67288 | 144.98497 | 8176 ft | 165 kts | 336° |
| 2026-05-04 07:43 | -40.66249 | 144.97866 | 8601 ft | 163 kts | 335° |
| 2026-05-04 07:43 | -40.65224 | 144.97245 | 9041 ft | 161 kts | 335° |
| 2026-05-04 07:43 | -40.64209 | 144.96629 | 9486 ft | 160 kts | 336° |
| 2026-05-04 07:44 | -40.63202 | 144.96020 | 9912 ft | 158 kts | 336° |
| 2026-05-04 07:44 | -40.62205 | 144.95416 | 10313 ft | 157 kts | 336° |
| 2026-05-04 07:44 | -40.61213 | 144.94816 | 10727 ft | 157 kts | 336° |
| 2026-05-04 07:44 | -40.60226 | 144.94220 | 11145 ft | 155 kts | 335° |
| 2026-05-04 07:45 | -40.59248 | 144.93627 | 11568 ft | 154 kts | 336° |
| 2026-05-04 07:45 | -40.58286 | 144.93047 | 11992 ft | 153 kts | 336° |
| 2026-05-04 07:45 | -40.57318 | 144.92462 | 12430 ft | 153 kts | 335° |
| 2026-05-04 07:45 | -40.56356 | 144.91880 | 12869 ft | 152 kts | 335° |
| 2026-05-04 07:46 | -40.55401 | 144.91303 | 13317 ft | 150 kts | 335° |
| 2026-05-04 07:46 | -40.54456 | 144.90734 | 13748 ft | 149 kts | 335° |
| 2026-05-04 07:46 | -40.53522 | 144.90170 | 14145 ft | 147 kts | 335° |
| 2026-05-04 07:46 | -40.52600 | 144.89613 | 14553 ft | 145 kts | 335° |
| 2026-05-04 07:47 | -40.51691 | 144.89065 | 14963 ft | 142 kts | 335° |
| 2026-05-04 07:47 | -40.50798 | 144.88525 | 15380 ft | 140 kts | 335° |
| 2026-05-04 07:47 | -40.49952 | 144.87929 | 15818 ft | 138 kts | 320° |
| 2026-05-04 07:49 | -40.46190 | 144.81624 | 18102 ft | 123 kts | 311° |
| 2026-05-04 07:49 | -40.45636 | 144.80711 | 18233 ft | 132 kts | 311° |
| 2026-05-04 07:49 | -40.45042 | 144.79732 | 18368 ft | 142 kts | 311° |
| 2026-05-04 07:50 | -40.44410 | 144.78681 | 18507 ft | 151 kts | 311° |
| 2026-05-04 07:50 | -40.43738 | 144.77561 | 18650 ft | 161 kts | 310° |
| 2026-05-04 07:50 | -40.43022 | 144.76366 | 18791 ft | 171 kts | 310° |
| 2026-05-04 07:50 | -40.42266 | 144.75107 | 18925 ft | 180 kts | 310° |
| 2026-05-04 07:51 | -40.41295 | 144.74063 | 19049 ft | 186 kts | 336° |
| 2026-05-04 07:51 | -40.39997 | 144.73827 | 19177 ft | 196 kts | 4° |
| 2026-05-04 07:51 | -40.38649 | 144.74332 | 19311 ft | 206 kts | 15° |
| 2026-05-04 07:51 | -40.37278 | 144.74962 | 19439 ft | 210 kts | 10° |
| 2026-05-04 07:52 | -40.35834 | 144.74999 | 19585 ft | 209 kts | 344° |
| 2026-05-04 07:52 | -40.34559 | 144.74104 | 19737 ft | 212 kts | 318° |
| 2026-05-04 07:52 | -40.33619 | 144.72600 | 19785 ft | 221 kts | 306° |
| 2026-05-04 07:52 | -40.32772 | 144.70863 | 19778 ft | 230 kts | 305° |
| 2026-05-04 07:53 | -40.31881 | 144.69082 | 19779 ft | 236 kts | 306° |
| 2026-05-04 07:54 | -40.25053 | 144.55995 | 19769 ft | 256 kts | 306° |
| 2026-05-04 07:55 | -40.24048 | 144.54069 | 19767 ft | 257 kts | 307° |
| 2026-05-04 07:55 | -40.23038 | 144.52136 | 19766 ft | 257 kts | 306° |
| 2026-05-04 07:55 | -40.22027 | 144.50202 | 19767 ft | 258 kts | 307° |
| 2026-05-04 07:55 | -40.21010 | 144.48258 | 19763 ft | 259 kts | 306° |
| 2026-05-04 07:56 | -40.19992 | 144.46313 | 19760 ft | 259 kts | 306° |
| 2026-05-04 07:56 | -40.18973 | 144.44369 | 19752 ft | 260 kts | 306° |
| 2026-05-04 07:56 | -40.17951 | 144.42419 | 19752 ft | 260 kts | 306° |
| 2026-05-04 07:56 | -40.16930 | 144.40472 | 19753 ft | 260 kts | 307° |
| 2026-05-04 07:57 | -40.15923 | 144.38552 | 19752 ft | 260 kts | 306° |
| 2026-05-04 07:57 | -40.14901 | 144.36604 | 19752 ft | 260 kts | 306° |
| 2026-05-04 07:57 | -40.13876 | 144.34655 | 19750 ft | 260 kts | 306° |
| 2026-05-04 07:57 | -40.12852 | 144.32707 | 19750 ft | 260 kts | 307° |
| 2026-05-04 07:58 | -40.11828 | 144.30760 | 19747 ft | 260 kts | 307° |
| 2026-05-04 07:58 | -40.10805 | 144.28816 | 19747 ft | 260 kts | 307° |
| 2026-05-04 07:58 | -40.09780 | 144.26871 | 19753 ft | 261 kts | 306° |
| 2026-05-04 07:58 | -40.08751 | 144.24918 | 19748 ft | 261 kts | 306° |
| 2026-05-04 07:59 | -40.07719 | 144.22962 | 19745 ft | 261 kts | 306° |
| 2026-05-04 07:59 | -40.06688 | 144.21008 | 19743 ft | 261 kts | 306° |
| 2026-05-04 07:59 | -40.05655 | 144.19050 | 19743 ft | 261 kts | 306° |
| 2026-05-04 07:59 | -40.04632 | 144.17116 | 19735 ft | 262 kts | 306° |
| 2026-05-04 08:00 | -40.03599 | 144.15160 | 19740 ft | 262 kts | 306° |
| 2026-05-04 08:00 | -40.02566 | 144.13203 | 19737 ft | 262 kts | 306° |
| 2026-05-04 08:00 | -40.01529 | 144.11249 | 19734 ft | 262 kts | 306° |
| 2026-05-04 08:02 | -39.94280 | 143.97588 | 19735 ft | 261 kts | 306° |
| 2026-05-04 08:02 | -39.93247 | 143.95640 | 19736 ft | 261 kts | 306° |
| 2026-05-04 08:02 | -39.92213 | 143.93700 | 19730 ft | 260 kts | 306° |
| 2026-05-04 08:03 | -39.91177 | 143.91763 | 19721 ft | 260 kts | 306° |
| 2026-05-04 08:03 | -39.90053 | 143.89961 | 19721 ft | 260 kts | 318° |
| 2026-05-04 08:03 | -39.88501 | 143.88778 | 19691 ft | 261 kts | 339° |
| 2026-05-04 08:03 | -39.86700 | 143.88461 | 19706 ft | 265 kts | 360° |
| 2026-05-04 08:04 | -39.84888 | 143.89017 | 19713 ft | 271 kts | 17° |
| 2026-05-04 08:04 | -39.83152 | 143.89992 | 19722 ft | 272 kts | 19° |
| 2026-05-04 08:04 | -39.81407 | 143.90926 | 19724 ft | 271 kts | 16° |
| 2026-05-04 08:04 | -39.79626 | 143.91714 | 19725 ft | 270 kts | 11° |
| 2026-05-04 08:05 | -39.77833 | 143.92457 | 19740 ft | 271 kts | 13° |
| 2026-05-04 08:05 | -39.76045 | 143.93262 | 19735 ft | 272 kts | 13° |
| 2026-05-04 08:05 | -39.74261 | 143.94078 | 19735 ft | 272 kts | 13° |
| 2026-05-04 08:05 | -39.72469 | 143.94876 | 19735 ft | 272 kts | 13° |
| 2026-05-04 08:06 | -39.70677 | 143.95669 | 19726 ft | 272 kts | 13° |
| 2026-05-04 08:06 | -39.68884 | 143.96468 | 19732 ft | 272 kts | 14° |
| 2026-05-04 08:06 | -39.67118 | 143.97255 | 19728 ft | 272 kts | 14° |
| 2026-05-04 08:06 | -39.65328 | 143.98052 | 19723 ft | 272 kts | 13° |
| 2026-05-04 08:08 | -39.52787 | 144.03609 | 19734 ft | 271 kts | 13° |
| 2026-05-04 08:08 | -39.51002 | 144.04408 | 19737 ft | 271 kts | 13° |
| 2026-05-04 08:10 | -39.36683 | 144.10727 | 19748 ft | 274 kts | 12° |
| 2026-05-04 08:11 | -39.34885 | 144.11528 | 19747 ft | 273 kts | 12° |
| 2026-05-04 08:11 | -39.31281 | 144.13107 | 19758 ft | 273 kts | 13° |
| 2026-05-04 08:11 | -39.29478 | 144.13898 | 19758 ft | 274 kts | 12° |
| 2026-05-04 08:12 | -39.27676 | 144.14695 | 19759 ft | 274 kts | 13° |
| 2026-05-04 08:12 | -39.25875 | 144.15499 | 19760 ft | 274 kts | 13° |
| 2026-05-04 08:12 | -39.24090 | 144.16275 | 19773 ft | 274 kts | 11° |
| 2026-05-04 08:12 | -39.22284 | 144.17062 | 19772 ft | 274 kts | 12° |
| 2026-05-04 08:13 | -39.20467 | 144.17862 | 19519 ft | 282 kts | 13° |
| 2026-05-04 08:13 | -39.18562 | 144.18695 | 19093 ft | 294 kts | 13° |
| 2026-05-04 08:13 | -39.16588 | 144.19547 | 18630 ft | 303 kts | 12° |
| 2026-05-04 08:13 | -39.14564 | 144.20439 | 18162 ft | 310 kts | 13° |
| 2026-05-04 08:14 | -39.12515 | 144.21362 | 17650 ft | 313 kts | 13° |
| 2026-05-04 08:14 | -39.10443 | 144.22256 | 17094 ft | 315 kts | 12° |
| 2026-05-04 08:14 | -39.08347 | 144.23171 | 16432 ft | 319 kts | 13° |
| 2026-05-04 08:16 | -38.93843 | 144.29511 | 12014 ft | 298 kts | 13° |
| 2026-05-04 08:16 | -38.91893 | 144.30361 | 11384 ft | 294 kts | 12° |
| 2026-05-04 08:16 | -38.89970 | 144.31194 | 10757 ft | 289 kts | 12° |
| 2026-05-04 08:17 | -38.88075 | 144.32012 | 10149 ft | 285 kts | 12° |
| 2026-05-04 08:17 | -38.86835 | 144.32553 | 9752 ft | 283 kts | 12° |
| 2026-05-04 08:17 | -38.84374 | 144.33615 | 9247 ft | 274 kts | 12° |
| 2026-05-04 08:17 | -38.82596 | 144.34368 | 8931 ft | 270 kts | 11° |
| 2026-05-04 08:19 | -38.71254 | 144.39304 | 7800 ft | 240 kts | 10° |
| 2026-05-04 08:19 | -38.69671 | 144.39969 | 7800 ft | 239 kts | 11° |
| 2026-05-04 08:20 | -38.68099 | 144.40654 | 7801 ft | 238 kts | 11° |
| 2026-05-04 08:20 | -38.66533 | 144.41336 | 7806 ft | 237 kts | 11° |
| 2026-05-04 08:20 | -38.64970 | 144.42008 | 7807 ft | 237 kts | 10° |
| 2026-05-04 08:20 | -38.63408 | 144.42678 | 7806 ft | 237 kts | 11° |
| 2026-05-04 08:21 | -38.61849 | 144.43351 | 7810 ft | 237 kts | 10° |
| 2026-05-04 08:21 | -38.60308 | 144.44014 | 7811 ft | 237 kts | 11° |
| 2026-05-04 08:21 | -38.58748 | 144.44687 | 7820 ft | 237 kts | 10° |
| 2026-05-04 08:21 | -38.57185 | 144.45364 | 7819 ft | 237 kts | 11° |
| 2026-05-04 08:22 | -38.55625 | 144.46034 | 7820 ft | 237 kts | 11° |
| 2026-05-04 08:22 | -38.54058 | 144.46704 | 7819 ft | 238 kts | 11° |
| 2026-05-04 08:24 | -38.42827 | 144.47062 | 6840 ft | 241 kts | 353° |
| 2026-05-04 08:24 | -38.41160 | 144.46974 | 6105 ft | 237 kts | 346° |
| 2026-05-04 08:24 | -38.39551 | 144.46615 | 5346 ft | 233 kts | 343° |
| 2026-05-04 08:24 | -38.38012 | 144.46325 | 4588 ft | 215 kts | 346° |
| 2026-05-04 08:25 | -38.36552 | 144.46108 | 3823 ft | 207 kts | 345° |
| 2026-05-04 08:25 | -38.35142 | 144.45872 | 3112 ft | 202 kts | 344° |
| 2026-05-04 08:25 | -38.33779 | 144.45629 | 2857 ft | 195 kts | 343° |
| 2026-05-04 08:25 | -38.32438 | 144.45403 | 2602 ft | 193 kts | 345° |
| 2026-05-04 08:26 | -38.31116 | 144.45203 | 2472 ft | 186 kts | 344° |
| 2026-05-04 08:27 | -38.21782 | 144.43724 | 3006 ft | 206 kts | 349° |
| 2026-05-04 08:28 | -38.20316 | 144.43901 | 3004 ft | 215 kts | 0° |
| 2026-05-04 08:28 | -38.18851 | 144.44220 | 2802 ft | 200 kts | 1° |
| 2026-05-04 08:28 | -38.17608 | 144.44495 | 2518 ft | 166 kts | 356° |
| 2026-05-04 08:28 | -38.16521 | 144.44648 | 2253 ft | 154 kts | 355° |
| 2026-05-04 08:29 | -38.15501 | 144.44807 | 2058 ft | 137 kts | 356° |
| 2026-05-04 08:29 | -38.14579 | 144.44968 | 1805 ft | 133 kts | 355° |
| 2026-05-04 08:29 | -38.13676 | 144.45129 | 1630 ft | 127 kts | 354° |
| 2026-05-04 08:31 | -38.08018 | 144.46036 | 639 ft | 92 kts | 359° |
| 2026-05-04 08:33 | -38.04348 | 144.46667 | 28 ft | 41 kts | 8° |
| 2026-05-04 08:33 | -38.04046 | 144.46717 | 28 ft | 42 kts | 8° |
| 2026-05-04 08:35 | -38.03141 | 144.47287 | 27 ft | 24 kts | 31° |
| 2026-05-04 08:35 | -38.02985 | 144.47344 | 27 ft | 17 kts | 15° |
| 2026-05-04 08:35 | -38.02911 | 144.47463 | 27 ft | 20 kts | 40° |
| 2026-05-04 08:35 | -38.02927 | 144.47525 | 27 ft | 13 kts | 223° |